Map

Track Data

SID SEASON NUMBER BASIN SUBBASIN NAME ISO_TIME NATURE LAT LON WMO_WIND WMO_PRES WMO_AGENCY TRACK_TYPE DIST2LAND LANDFALL IFLAG USA_AGENCY USA_ATCF_ID USA_LAT USA_LON USA_RECORD USA_STATUS USA_WIND USA_PRES USA_SSHS USA_R34_NE USA_R34_SE USA_R34_SW USA_R34_NW USA_R50_NE USA_R50_SE USA_R50_SW USA_R50_NW USA_R64_NE USA_R64_SE USA_R64_SW USA_R64_NW USA_POCI USA_ROCI USA_RMW USA_EYE TOKYO_LAT TOKYO_LON TOKYO_GRADE TOKYO_WIND TOKYO_PRES TOKYO_R50_DIR TOKYO_R50_LONG TOKYO_R50_SHORT TOKYO_R30_DIR TOKYO_R30_LONG TOKYO_R30_SHORT TOKYO_LAND CMA_LAT CMA_LON CMA_CAT CMA_WIND CMA_PRES HKO_LAT HKO_LON HKO_CAT HKO_WIND HKO_PRES NEWDELHI_LAT NEWDELHI_LON NEWDELHI_GRADE NEWDELHI_WIND NEWDELHI_PRES NEWDELHI_CI NEWDELHI_DP NEWDELHI_POCI REUNION_LAT REUNION_LON REUNION_TYPE REUNION_WIND REUNION_PRES REUNION_TNUM REUNION_CI REUNION_RMW REUNION_R34_NE REUNION_R34_SE REUNION_R34_SW REUNION_R34_NW REUNION_R50_NE REUNION_R50_SE REUNION_R50_SW REUNION_R50_NW REUNION_R64_NE REUNION_R64_SE REUNION_R64_SW REUNION_R64_NW BOM_LAT BOM_LON BOM_TYPE BOM_WIND BOM_PRES BOM_TNUM BOM_CI BOM_RMW BOM_R34_NE BOM_R34_SE BOM_R34_SW BOM_R34_NW BOM_R50_NE BOM_R50_SE BOM_R50_SW BOM_R50_NW BOM_R64_NE BOM_R64_SE BOM_R64_SW BOM_R64_NW BOM_ROCI BOM_POCI BOM_EYE BOM_POS_METHOD BOM_PRES_METHOD NADI_LAT NADI_LON NADI_CAT NADI_WIND NADI_PRES WELLINGTON_LAT WELLINGTON_LON WELLINGTON_WIND WELLINGTON_PRES DS824_LAT DS824_LON DS824_STAGE DS824_WIND DS824_PRES TD9636_LAT TD9636_LON TD9636_STAGE TD9636_WIND TD9636_PRES TD9635_LAT TD9635_LON TD9635_WIND TD9635_PRES TD9635_ROCI NEUMANN_LAT NEUMANN_LON NEUMANN_CLASS NEUMANN_WIND NEUMANN_PRES MLC_LAT MLC_LON MLC_CLASS MLC_WIND MLC_PRES USA_GUST BOM_GUST BOM_GUST_PER REUNION_GUST REUNION_GUST_PER USA_SEAHGT USA_SEARAD_NE USA_SEARAD_SE USA_SEARAD_SW USA_SEARAD_NW STORM_SPEED STORM_DIR
1994275S05062 1995 99 SI MM NOT_NAMED 1994-10-02 06:00:00 TS -5.10000 62.0000 25 1002 reunion main 1596 1568 _____O________ -1 -5.10000 62.0000 2 25 1002 2.00000 2.00000 7 195
1994275S05062 1995 99 SI MM NOT_NAMED 1994-10-02 09:00:00 TS -5.42000 61.9075 main 1568 1540 _____P________ -1 -5.42000 61.9075 2 25 1001 6 198
1994275S05062 1995 99 SI MM NOT_NAMED 1994-10-02 12:00:00 TS -5.70000 61.8000 25 1000 reunion main 1540 1519 _____O________ -1 -5.70000 61.8000 2 25 1000 2.00000 2.00000 6 206
1994275S05062 1995 99 SI MM NOT_NAMED 1994-10-02 15:00:00 TS -5.91499 61.6650 main 1519 1488 _____P________ -1 -5.91499 61.6650 2 25 1000 5 217
1994275S05062 1995 99 SI MM NOT_NAMED 1994-10-02 18:00:00 TS -6.10000 61.5000 25 1000 reunion main 1488 1457 _____O________ -1 -6.10000 61.5000 2 25 1000 2.00000 2.00000 5 222
1994275S05062 1995 99 SI MM NOT_NAMED 1994-10-02 21:00:00 TS -6.29999 61.3150 main 1457 1427 _____P________ -1 -6.29999 61.3150 2 25 1000 6 225
1994275S05062 1995 99 SI MM NOT_NAMED 1994-10-03 00:00:00 TS -6.50000 61.1000 25 1000 reunion main 1427 1396 _____O________ -1 -6.50000 61.1000 2 25 1000 2.00000 2.00000 6 226
1994275S05062 1995 99 SI MM NOT_NAMED 1994-10-03 03:00:00 TS -6.70742 60.8950 main 1396 1356 _____P________ -1 -6.70742 60.8950 2 25 1000 6 231
1994275S05062 1995 99 SI MM NOT_NAMED 1994-10-03 06:00:00 TS -6.90000 60.6000 25 1000 reunion main 1356 1313 _____O________ -1 -6.90000 60.6000 2 25 1000 2.00000 2.00000 8 245
1994275S05062 1995 99 SI MM NOT_NAMED 1994-10-03 09:00:00 TS -7.05752 60.1450 main 1297 1245 _____P________ -1 -7.05752 60.1450 2 25 1000 10 253
1994275S05062 1995 99 SI MM NOT_NAMED 1994-10-03 12:00:00 TS -7.20000 59.6000 25 1000 reunion main 1245 1192 _____O________ -1 -7.20000 59.6000 2 25 1000 2.00000 2.00000 11 255
1994275S05062 1995 99 SI MM NOT_NAMED 1994-10-03 15:00:00 TS -7.34999 59.0500 main 1183 1124 _____P________ -1 -7.34999 59.0500 2 25 1000 11 255
1994275S05062 1995 99 SI MM NOT_NAMED 1994-10-03 18:00:00 TS -7.50000 58.5000 25 1000 reunion main 1124 1073 _____O________ -1 -7.50000 58.5000 2 25 1000 2.00000 2.00000 11 254
1994275S05062 1995 99 SI MM NOT_NAMED 1994-10-03 21:00:00 TS -7.64983 58.0149 main 1073 1015 _____P________ -1 -7.64983 58.0149 2 26 998 10 253
1994275S05062 1995 99 SI MM NOT_NAMED 1994-10-04 00:00:00 TS -7.80000 57.5000 28 997 reunion main 1015 946 _____O________ -1 -7.80000 57.5000 2 28 997 2.50000 2.50000 12 254
1994275S05062 1995 99 SI MM NOT_NAMED 1994-10-04 03:00:00 TS -7.97234 56.9025 main 946 874 _____P________ -1 -7.97234 56.9025 2 28 997 13 257
1994275S05062 1995 99 SI MM NOT_NAMED 1994-10-04 06:00:00 TS -8.10000 56.2000 28 997 reunion main 874 801 _____O________ -1 -8.10000 56.2000 2 28 997 2.50000 2.50000 15 265
1994275S05062 1995 99 SI MM NOT_NAMED 1994-10-04 09:00:00 TS -8.11504 55.3723 main 801 723 _____P________ -1 -8.11504 55.3723 2 28 997 17 270
1994275S05062 1995 99 SI MM NOT_NAMED 1994-10-04 12:00:00 TS -8.10000 54.5000 28 997 reunion main 723 665 _____O________ -1 -8.10000 54.5000 2 28 997 2.50000 2.50000 17 270
1994275S05062 1995 99 SI MM NOT_NAMED 1994-10-04 15:00:00 TS -8.11221 53.7073 main 657 588 _____P________ -1 -8.11221 53.7073 2 28 997 16 266
1994275S05062 1995 99 SI MM NOT_NAMED 1994-10-04 18:00:00 TS -8.20000 52.9000 28 997 reunion main 588 509 _____O________ -1 -8.20000 52.9000 2 28 997 2.50000 2.50000 18 260
1994275S05062 1995 99 SI MM NOT_NAMED 1994-10-04 21:00:00 TS -8.42767 51.9703 main 509 428 _____P________ -1 -8.42767 51.9703 2 29 996 19 254
1994275S05062 1995 99 SI MM NOT_NAMED 1994-10-05 00:00:00 TS -8.70000 51.1000 30 995 reunion main 428 381 _____O________ -1 -8.70000 51.1000 2 30 995 2.50000 2.50000 16 251
1994275S05062 1995 99 SI MM NOT_NAMED 1994-10-05 03:00:00 TS -8.94461 50.4625 main 381 342 _____P________ -1 -8.94461 50.4625 2 30 995 13 251
1994275S05062 1995 99 SI MM NOT_NAMED 1994-10-05 06:00:00 TS -9.10000 49.9000 30 995 reunion main 342 336 _____O________ -1 -9.10000 49.9000 2 30 995 2.50000 2.50000 12 263
1994275S05062 1995 99 SI MM NOT_NAMED 1994-10-05 09:00:00 TS -9.09492 49.2574 main 336 336 _____P________ -1 -9.09492 49.2574 2 29 996 13 274
1994275S05062 1995 99 SI MM NOT_NAMED 1994-10-05 12:00:00 TS -9.00000 48.6000 28 997 reunion main 353 353 _____O________ -1 -9.00000 48.6000 2 28 997 2.50000 2.50000 14 278
1994275S05062 1995 99 SI MM NOT_NAMED 1994-10-05 15:00:00 TS -8.90013 47.8899 main 385 385 _____P________ -1 -8.90013 47.8899 2 28 997 13 279
1994275S05062 1995 99 SI MM NOT_NAMED 1994-10-05 18:00:00 TS -8.80000 47.3000 28 997 reunion main 424 424 _____O________ -1 -8.80000 47.3000 2 28 997 2.00000 2.50000 9 280
1994275S05062 1995 99 SI MM NOT_NAMED 1994-10-05 21:00:00 TS -8.74233 46.9676 main 450 450 _____P________ -1 -8.74233 46.9676 2 28 997 5 281
1994275S05062 1995 99 SI MM NOT_NAMED 1994-10-06 00:00:00 TS -8.70000 46.8000 28 997 reunion main 462 462 _____O________ -1 -8.70000 46.8000 2 28 997 2.00000 2.50000 3 290
1994275S05062 1995 99 SI MM NOT_NAMED 1994-10-06 03:00:00 TS -8.64992 46.7150 main 478 478 _____P________ -1 -8.64992 46.7150 2 26 998 2 297
1994275S05062 1995 99 SI MM NOT_NAMED 1994-10-06 06:00:00 TS -8.60000 46.6000 25 1000 reunion main 484 484 _____O________ -1 -8.60000 46.6000 2 25 1000 2.00000 2.00000 4 279
1994275S05062 1995 99 SI MM NOT_NAMED 1994-10-06 09:00:00 TS -8.58006 46.2801 main 504 504 _____P________ -1 -8.58006 46.2801 2 25 1000 7 278
1994275S05062 1995 99 SI MM NOT_NAMED 1994-10-06 12:00:00 TS -8.50000 45.9000 25 1000 reunion main 541 541 _____O________ -1 -8.50000 45.9000 2 25 1000 2.00000 2.00000 8 292
1994275S05062 1995 99 SI MM NOT_NAMED 1994-10-06 15:00:00 TS -8.30248 45.5775 main 580 580 _____P________ -1 -8.30248 45.5775 2 25 1000 8 310
1994275S05062 1995 99 SI MM NOT_NAMED 1994-10-06 18:00:00 TS -8.00000 45.3000 25 1000 reunion main 598 591 _____O________ -1 -8.00000 45.3000 2 25 1000 2.00000 2.00000 8 324
1994275S05062 1995 99 SI MM NOT_NAMED 1994-10-06 21:00:00 TS -7.62001 45.0825 main 604 585 _____P________ -1 -7.62001 45.0825 2 22 1001 9 334
1994275S05062 1995 99 SI MM NOT_NAMED 1994-10-07 00:00:00 TS -7.20000 44.9000 20 1002 reunion main 585 _____O________ -1 -7.20000 44.9000 2 20 1002 1.50000 2.00000 9 337

About IBTrACS Database

This database is a web-friendly format of International Best Track Archive for Climate Stewardship (IBTrACS), a global best track data archive curated by NOAA dating back to 1842.

Updated: 2021-11-26